Airfield :
LOGIN :

Register | Disclaimer

   EN    FR    IT 

 










Legend :    VFR   Marginal VFR   IFR   Intensive IFR   Very Intensive IFR
Visi :
Ceiling :
>= 8 km
>= 3000ft
5 to 8 km
1000 to 3000 ft
1500m to 5 km
500 to 1000 ft
800 to 1500m
200 to 500 ft
< 800m
< 200 ft
Symbols :   Thunderstorms  Fog  Heavy snow  Heavy precipitations  Wind > 20 kt
SIGMETs :     Misc.  Thunderstorms  Icing  Turbulence  Mountain Waves  Volcanic Ashes






- Airport Elevation : 296 ft
- IATA code : GKE


ETNG - Geilenkirchen

CURRENT METAR :
  • 280450Z 18003KT 5000 RA BR FEW007 OVC011 05/05 Q1005

EXPIRED METARs :
  • 280359Z 17002KT 3500 RA BR SCT006 OVC011 06/05 Q1006
  • 270250Z 21007KT CAVOK 02/M01 Q1015

TAF COR TAF ETNG
Valid from the 28 at 06:00 until the 28 at 21:00 UTC


280500Z 2806/2821 13005KT 3500 RADZ BR BKN010
BECMG 2809/2812 24005KT BKN006
TEMPO 2810/2814 2000 DZRA BR BKN003
BECMG 2812/2814 26013G25KT 6000 BKN010
PROB40
TEMPO 2814/2821 4000 DZRA BKN005



MET'MAP, your aeronautical weather chart ! - Copyright ORBIFLY December 2007 - Disclaimer

ORBIFLY MET'MAP TEAM :

Programming & Development : Alexandra Zaïnal
Concept & original design : Baudouin d'Aumeries
Assistance for programming : Marc-Olivier Méhu
Technical & hardware support : Manuel Goepfert

Contact : metmap@orbifly.com




SOURCES & CREDITS :

   NOAA